createdAt,value
2017-10-04T00:00:29.258Z,10.5
2017-10-04T00:01:30.879Z,12.4
2017-10-04T00:02:32.501Z,7.3
2017-10-04T00:03:34.122Z,12.0
2017-10-04T00:04:35.740Z,13.2
2017-10-04T00:05:37.361Z,11.7
2017-10-04T00:06:38.981Z,7.9
2017-10-04T00:07:40.599Z,12.8
2017-10-04T00:08:42.217Z,9.9
2017-10-04T00:09:43.839Z,11.0
2017-10-04T00:10:45.462Z,17.0
2017-10-04T00:11:47.080Z,10.5
2017-10-04T00:12:48.701Z,11.2
2017-10-04T00:13:50.321Z,16.2
2017-10-04T00:14:51.941Z,11.6
2017-10-04T00:15:53.560Z,12.4
2017-10-04T00:16:55.183Z,14.5
2017-10-04T00:17:56.802Z,12.3
2017-10-04T00:18:58.423Z,10.3
2017-10-04T00:20:00.047Z,7.1
2017-10-04T00:21:01.662Z,9.2
2017-10-04T00:22:03.285Z,15.5
2017-10-04T00:23:04.904Z,13.0
2017-10-04T00:24:06.531Z,18.2
2017-10-04T00:25:08.150Z,10.5
2017-10-04T00:26:09.770Z,6.8
2017-10-04T00:27:11.387Z,12.7
2017-10-04T00:28:13.008Z,12.4
2017-10-04T00:29:14.624Z,7.1
2017-10-04T00:30:16.248Z,10.3
2017-10-04T00:31:17.870Z,12.8
2017-10-04T00:32:19.488Z,9.8
2017-10-04T00:33:21.109Z,10.8
2017-10-04T00:34:22.729Z,10.0
2017-10-04T00:35:24.346Z,8.6
2017-10-04T00:36:25.966Z,12.1
2017-10-04T00:37:27.588Z,16.9
2017-10-04T00:38:29.208Z,10.8
2017-10-04T00:39:30.826Z,15.9
2017-10-04T00:40:32.444Z,11.6
2017-10-04T00:41:34.064Z,14.8
2017-10-04T00:42:35.687Z,18.5
2017-10-04T00:43:37.304Z,12.5
2017-10-04T00:44:38.925Z,12.2
2017-10-04T00:45:40.544Z,13.5
2017-10-04T00:46:42.162Z,9.8
2017-10-04T00:47:43.783Z,11.3
2017-10-04T00:48:45.401Z,12.4
2017-10-04T00:49:47.018Z,11.9
2017-10-04T00:50:48.638Z,12.9
2017-10-04T00:51:50.276Z,12.2
2017-10-04T00:52:51.897Z,10.6
2017-10-04T00:53:53.517Z,9.2
2017-10-04T00:54:55.133Z,13.1
2017-10-04T00:55:56.754Z,13.7
2017-10-04T00:56:58.372Z,10.7
2017-10-04T00:57:59.992Z,10.9
2017-10-04T00:59:01.612Z,12.9
2017-10-04T01:00:03.233Z,13.2
2017-10-04T01:01:04.851Z,10.3
2017-10-04T01:02:06.471Z,9.1
2017-10-04T01:03:08.089Z,10.0
2017-10-04T01:04:09.711Z,10.8
2017-10-04T01:05:11.328Z,9.8
2017-10-04T01:06:12.949Z,9.6
2017-10-04T01:07:14.571Z,11.9
2017-10-04T01:08:16.188Z,11.1
2017-10-04T01:09:17.806Z,11.0
2017-10-04T01:10:19.428Z,9.6
2017-10-04T01:11:21.049Z,11.1
2017-10-04T01:12:22.675Z,10.1
2017-10-04T01:13:24.289Z,11.1
2017-10-04T01:14:25.911Z,11.0
2017-10-04T01:15:27.525Z,11.9
2017-10-04T01:16:29.144Z,14.2
2017-10-04T01:17:30.764Z,10.5
2017-10-04T01:18:32.385Z,11.8
2017-10-04T01:19:34.005Z,11.9
2017-10-04T01:20:35.623Z,8.5
2017-10-04T01:21:37.247Z,10.0
2017-10-04T01:22:38.861Z,10.0
2017-10-04T01:23:40.482Z,11.4
2017-10-04T01:24:42.099Z,10.8
2017-10-04T01:25:43.721Z,11.4
2017-10-04T01:26:45.341Z,9.1
2017-10-04T01:27:46.961Z,12.6
2017-10-04T01:28:48.584Z,10.9
2017-10-04T01:29:50.200Z,12.0
2017-10-04T01:30:51.818Z,14.1
2017-10-04T01:31:53.440Z,10.4
2017-10-04T01:32:55.060Z,12.1
2017-10-04T01:33:56.679Z,11.6
2017-10-04T01:34:58.299Z,12.5
2017-10-04T01:35:59.921Z,10.6
2017-10-04T01:37:01.539Z,13.8
2017-10-04T01:38:03.159Z,11.2
2017-10-04T01:39:04.778Z,15.0
2017-10-04T01:40:06.402Z,13.2
2017-10-04T01:41:08.015Z,10.8
2017-10-04T01:42:09.635Z,6.2
2017-10-04T01:43:11.259Z,11.9
2017-10-04T01:44:12.874Z,10.8
2017-10-04T01:45:14.493Z,11.2
2017-10-04T01:46:16.114Z,9.0
2017-10-04T01:47:17.732Z,9.8
2017-10-04T01:48:19.356Z,11.3
2017-10-04T01:49:20.983Z,11.3
2017-10-04T01:50:22.606Z,12.0
2017-10-04T01:51:24.225Z,10.8
2017-10-04T01:52:25.842Z,8.1
2017-10-04T01:53:27.460Z,8.4
2017-10-04T01:54:29.077Z,12.1
2017-10-04T01:55:30.698Z,10.7
2017-10-04T01:56:32.320Z,12.9
2017-10-04T01:57:33.941Z,9.7
2017-10-04T01:58:35.557Z,10.6
2017-10-04T01:59:37.177Z,14.5
2017-10-04T02:00:38.806Z,12.5
2017-10-04T02:01:40.417Z,12.0
2017-10-04T02:02:42.039Z,8.9
2017-10-04T02:03:43.658Z,10.6
2017-10-04T02:04:45.284Z,11.8
2017-10-04T02:05:46.898Z,12.6
2017-10-04T02:06:48.518Z,10.5
2017-10-04T02:07:50.138Z,10.5
2017-10-04T02:08:51.758Z,14.5
2017-10-04T02:09:53.380Z,11.2
2017-10-04T02:10:55.006Z,10.0
2017-10-04T02:11:56.622Z,8.0
2017-10-04T02:12:58.238Z,10.9
2017-10-04T02:13:59.858Z,8.1
2017-10-04T02:15:01.475Z,10.1
2017-10-04T02:16:03.094Z,9.4
2017-10-04T02:17:04.717Z,13.2
2017-10-04T02:18:06.336Z,9.6
2017-10-04T02:19:07.957Z,11.9
2017-10-04T02:20:09.575Z,6.9
2017-10-04T02:21:11.190Z,13.1
2017-10-04T02:22:12.808Z,11.2
2017-10-04T02:23:14.427Z,10.2
2017-10-04T02:24:16.055Z,10.0
2017-10-04T02:25:17.667Z,8.8
2017-10-04T02:26:19.288Z,10.2
2017-10-04T02:27:20.905Z,10.4
2017-10-04T02:28:22.526Z,15.0
2017-10-04T02:29:24.144Z,13.7
2017-10-04T02:30:25.762Z,10.4
2017-10-04T02:31:27.383Z,12.6
2017-10-04T02:32:29.008Z,11.4
2017-10-04T02:33:30.633Z,10.8
2017-10-04T02:34:32.262Z,9.9
2017-10-04T02:35:33.866Z,8.0
2017-10-04T02:36:35.485Z,15.1
2017-10-04T02:37:37.106Z,9.7
2017-10-04T02:38:38.726Z,11.5
2017-10-04T02:39:40.343Z,13.3
2017-10-04T02:40:41.966Z,6.1
2017-10-04T02:41:43.585Z,11.5
2017-10-04T02:42:45.204Z,9.6
2017-10-04T02:43:46.822Z,10.2
2017-10-04T02:44:48.438Z,10.3
2017-10-04T02:45:50.059Z,8.7
2017-10-04T02:46:51.683Z,10.8
2017-10-04T02:47:53.303Z,11.2
2017-10-04T02:48:54.922Z,10.7
2017-10-04T02:49:56.542Z,11.9
2017-10-04T02:50:58.161Z,11.5
2017-10-04T02:51:59.783Z,11.0
2017-10-04T02:53:01.405Z,13.2
2017-10-04T02:54:03.020Z,9.2
2017-10-04T02:55:04.643Z,13.8
2017-10-04T02:56:06.266Z,12.5
2017-10-04T02:57:07.878Z,10.9
2017-10-04T02:58:09.497Z,12.3
2017-10-04T02:59:11.118Z,11.0
2017-10-04T03:00:12.737Z,8.8
2017-10-04T03:01:14.353Z,12.5
2017-10-04T03:02:15.980Z,10.1
2017-10-04T03:03:17.599Z,10.6
2017-10-04T03:04:19.223Z,16.0
2017-10-04T03:05:20.842Z,8.5
2017-10-04T03:06:22.463Z,11.8
2017-10-04T03:07:24.078Z,12.4
2017-10-04T03:08:25.700Z,14.0
2017-10-04T03:09:27.320Z,11.5
2017-10-04T03:10:28.939Z,12.5
2017-10-04T03:11:30.559Z,10.9
2017-10-04T03:12:32.183Z,12.6
2017-10-04T03:13:33.797Z,8.7
2017-10-04T03:14:35.416Z,9.3
2017-10-04T03:15:37.037Z,10.1
2017-10-04T03:16:38.657Z,10.5
2017-10-04T03:17:40.274Z,12.4
2017-10-04T03:18:41.892Z,11.7
2017-10-04T03:19:43.514Z,13.9
2017-10-04T03:20:45.136Z,10.9
2017-10-04T03:21:46.753Z,13.1
2017-10-04T03:22:48.374Z,10.9
2017-10-04T03:23:49.997Z,9.5
2017-10-04T03:24:51.615Z,11.6
2017-10-04T03:25:53.238Z,14.9
2017-10-04T03:26:54.853Z,10.7
2017-10-04T03:27:56.473Z,8.0
2017-10-04T03:28:58.091Z,11.7
2017-10-04T03:29:59.712Z,12.2
2017-10-04T03:31:01.338Z,12.4
2017-10-04T03:32:02.951Z,14.4
2017-10-04T03:33:04.573Z,8.7
2017-10-04T03:34:06.194Z,11.3
2017-10-04T03:35:07.811Z,9.7
2017-10-04T03:36:09.434Z,11.0
2017-10-04T03:37:11.056Z,12.6
2017-10-04T03:38:12.674Z,11.7
2017-10-04T03:39:14.288Z,9.3
2017-10-04T03:40:15.909Z,8.9
2017-10-04T03:41:17.530Z,13.7
2017-10-04T03:42:19.151Z,12.7
2017-10-04T03:43:20.775Z,11.8
2017-10-04T03:44:22.395Z,11.9
2017-10-04T03:45:24.016Z,8.5
2017-10-04T03:46:25.639Z,11.9
2017-10-04T03:47:27.255Z,16.6
2017-10-04T03:48:28.873Z,12.2
2017-10-04T03:49:30.495Z,11.6
2017-10-04T03:50:32.112Z,8.7
2017-10-04T03:51:33.733Z,10.6
2017-10-04T03:52:35.352Z,11.7
2017-10-04T03:53:36.971Z,11.8
2017-10-04T03:54:38.593Z,13.0
2017-10-04T03:55:40.210Z,14.6
2017-10-04T03:56:41.830Z,12.1
2017-10-04T03:57:43.450Z,12.1
2017-10-04T03:58:45.071Z,15.7
2017-10-04T03:59:46.695Z,13.8
2017-10-04T04:00:48.312Z,15.0
2017-10-04T04:01:49.930Z,13.8
2017-10-04T04:02:51.551Z,15.6
2017-10-04T04:03:53.170Z,16.8
2017-10-04T04:04:54.790Z,14.1
2017-10-04T04:05:56.410Z,12.8
2017-10-04T04:06:58.031Z,11.3
2017-10-04T04:07:59.650Z,12.8
2017-10-04T04:09:01.271Z,17.2
2017-10-04T04:10:02.891Z,13.9
2017-10-04T04:11:04.510Z,13.9
2017-10-04T04:12:06.127Z,14.3
2017-10-04T04:13:07.749Z,22.0
2017-10-04T04:14:09.368Z,12.7
2017-10-04T04:15:10.986Z,13.6
2017-10-04T04:16:12.606Z,13.6
2017-10-04T04:17:14.226Z,15.8
2017-10-04T04:18:15.845Z,14.2
2017-10-04T04:19:17.468Z,15.1
2017-10-04T04:20:19.086Z,14.4
2017-10-04T04:21:20.706Z,13.5
2017-10-04T04:22:22.326Z,14.8
2017-10-04T04:23:23.947Z,12.1
2017-10-04T04:24:25.566Z,15.3
2017-10-04T04:25:27.185Z,11.9
2017-10-04T04:26:28.804Z,12.6
2017-10-04T04:27:30.426Z,14.6
2017-10-04T04:28:32.052Z,10.2
2017-10-04T04:29:33.670Z,13.3
2017-10-04T04:30:35.290Z,14.9
2017-10-04T04:31:36.907Z,13.3
2017-10-04T04:32:38.525Z,16.5
2017-10-04T04:33:40.145Z,15.3
2017-10-04T04:34:41.766Z,12.9
2017-10-04T04:35:43.387Z,14.5
2017-10-04T04:36:45.009Z,15.0
2017-10-04T04:37:46.636Z,17.9
2017-10-04T04:38:48.254Z,12.8
2017-10-04T04:39:49.875Z,13.5
2017-10-04T04:40:51.496Z,14.8
2017-10-04T04:41:53.114Z,10.8
2017-10-04T04:42:54.738Z,13.5
2017-10-04T04:43:56.355Z,17.7
2017-10-04T04:44:57.972Z,16.8
2017-10-04T04:45:59.590Z,15.5
2017-10-04T04:47:01.210Z,14.9
2017-10-04T04:48:02.829Z,16.8
2017-10-04T04:49:04.450Z,13.1
2017-10-04T04:50:06.066Z,17.5
2017-10-04T04:51:07.685Z,16.4
2017-10-04T04:52:09.306Z,21.7
2017-10-04T04:53:10.924Z,15.9
2017-10-04T04:54:12.544Z,15.9
2017-10-04T04:55:14.163Z,17.5
2017-10-04T04:56:15.783Z,15.0
2017-10-04T04:57:17.402Z,12.1
2017-10-04T04:58:19.045Z,13.3
2017-10-04T04:59:20.664Z,13.6
2017-10-04T05:00:22.287Z,13.4
2017-10-04T05:01:23.901Z,18.1
2017-10-04T05:02:25.522Z,17.5
2017-10-04T05:03:27.143Z,14.2
2017-10-04T05:04:28.762Z,14.5
2017-10-04T05:05:30.379Z,15.9
2017-10-04T05:06:31.999Z,17.5
2017-10-04T05:07:33.619Z,12.3
2017-10-04T05:08:35.234Z,13.5
2017-10-04T05:09:36.854Z,17.6
2017-10-04T05:10:38.477Z,14.6
2017-10-04T05:11:40.097Z,19.1
2017-10-04T05:12:41.724Z,17.1
2017-10-04T05:13:43.336Z,17.0
2017-10-04T05:14:44.957Z,14.4
2017-10-04T05:15:46.597Z,14.7
2017-10-04T05:16:48.199Z,16.2
2017-10-04T05:17:49.815Z,13.8
2017-10-04T05:18:51.436Z,16.3
2017-10-04T05:19:53.054Z,19.0
2017-10-04T05:20:54.673Z,23.3
2017-10-04T05:21:56.293Z,15.1
2017-10-04T05:22:57.911Z,16.1
2017-10-04T05:23:59.533Z,17.5
2017-10-04T05:25:01.153Z,15.7
2017-10-04T05:26:02.773Z,13.6
2017-10-04T05:27:04.393Z,15.9
2017-10-04T05:28:06.015Z,16.1
2017-10-04T05:29:07.635Z,15.3
2017-10-04T05:30:09.252Z,17.8
2017-10-04T05:31:10.874Z,13.9
2017-10-04T05:32:12.493Z,17.6
2017-10-04T05:33:14.116Z,19.0
2017-10-04T05:34:15.738Z,16.5
2017-10-04T05:35:17.356Z,14.7
2017-10-04T05:36:18.980Z,17.5
2017-10-04T05:37:20.611Z,14.9
2017-10-04T05:38:22.220Z,18.9
2017-10-04T05:39:23.843Z,19.7
2017-10-04T05:40:25.464Z,17.2
2017-10-04T05:41:27.082Z,16.6
2017-10-04T05:42:28.700Z,16.5
2017-10-04T05:43:30.354Z,22.9
2017-10-04T05:44:31.974Z,18.7
2017-10-04T05:45:33.596Z,15.8
2017-10-04T05:46:35.220Z,20.7
2017-10-04T05:47:36.860Z,16.8
2017-10-04T05:48:38.463Z,14.6
2017-10-04T05:49:40.107Z,18.4
2017-10-04T05:50:41.744Z,13.0
2017-10-04T05:51:43.365Z,18.9
2017-10-04T05:52:44.989Z,17.9
2017-10-04T05:53:46.612Z,15.0
2017-10-04T05:54:48.252Z,14.2
2017-10-04T05:55:49.869Z,13.6
2017-10-04T05:56:51.492Z,18.5
2017-10-04T05:57:53.114Z,12.6
2017-10-04T05:58:54.739Z,19.5
2017-10-04T05:59:56.368Z,16.5
2017-10-04T06:00:57.987Z,14.1
2017-10-04T06:01:59.609Z,15.8
2017-10-04T06:03:01.231Z,16.7
2017-10-04T06:04:02.853Z,18.7
2017-10-04T06:05:04.472Z,16.4
2017-10-04T06:06:06.096Z,14.5
2017-10-04T06:07:07.719Z,14.4
2017-10-04T06:08:09.340Z,15.4
2017-10-04T06:09:10.966Z,16.7
2017-10-04T06:10:12.587Z,12.9
2017-10-04T06:11:14.209Z,15.8
2017-10-04T06:12:15.831Z,19.0
2017-10-04T06:13:17.452Z,19.1
2017-10-04T06:14:19.074Z,16.5
2017-10-04T06:15:20.698Z,16.9
2017-10-04T06:16:22.331Z,18.3
2017-10-04T06:17:23.946Z,13.3
2017-10-04T06:18:25.569Z,13.4
2017-10-04T06:19:27.190Z,16.5
2017-10-04T06:20:28.813Z,15.5
2017-10-04T06:21:30.435Z,21.3
2017-10-04T06:22:32.061Z,13.4
2017-10-04T06:23:33.688Z,16.5
2017-10-04T06:24:35.307Z,15.1
2017-10-04T06:25:36.932Z,14.6
2017-10-04T06:26:38.558Z,12.9
2017-10-04T06:27:40.180Z,23.3
2017-10-04T06:28:41.806Z,17.0
2017-10-04T06:29:43.428Z,15.5
2017-10-04T06:30:45.058Z,16.6
2017-10-04T06:31:46.680Z,19.1
2017-10-04T06:32:48.302Z,12.6
2017-10-04T06:33:49.932Z,17.9
2017-10-04T06:34:51.554Z,15.9
2017-10-04T06:35:53.178Z,20.0
2017-10-04T06:36:54.915Z,18.6
2017-10-04T06:37:56.541Z,13.3
2017-10-04T06:38:58.164Z,11.4
2017-10-04T06:39:59.790Z,16.8
2017-10-04T06:41:01.412Z,17.7
2017-10-04T06:42:03.034Z,14.6
2017-10-04T06:43:04.661Z,15.7
2017-10-04T06:44:06.284Z,10.7
2017-10-04T06:45:07.908Z,14.3
2017-10-04T06:46:09.530Z,16.7
2017-10-04T06:47:11.152Z,13.9
2017-10-04T06:48:12.775Z,16.0
2017-10-04T06:49:14.399Z,14.3
2017-10-04T06:50:16.022Z,10.2
2017-10-04T06:51:17.646Z,13.4
2017-10-04T06:52:19.273Z,12.3
2017-10-04T06:53:20.898Z,12.8
2017-10-04T06:54:22.518Z,15.1
2017-10-04T06:55:24.140Z,13.5
2017-10-04T06:56:25.765Z,15.1
2017-10-04T06:57:27.388Z,12.0
2017-10-04T06:58:29.012Z,13.6
2017-10-04T06:59:30.638Z,11.6
2017-10-04T07:00:32.259Z,13.6
2017-10-04T07:01:33.887Z,13.3
2017-10-04T07:02:35.508Z,13.0
2017-10-04T07:03:37.134Z,12.4
2017-10-04T07:04:38.760Z,15.3
2017-10-04T07:05:40.382Z,14.1
2017-10-04T07:06:42.015Z,14.4
2017-10-04T07:07:43.636Z,14.5
2017-10-04T07:08:45.259Z,12.0
2017-10-04T07:09:46.884Z,14.9
2017-10-04T07:10:48.510Z,13.5
2017-10-04T07:11:50.136Z,13.1
2017-10-04T07:12:51.765Z,14.1
2017-10-04T07:13:53.387Z,12.9
2017-10-04T07:14:55.013Z,14.8
2017-10-04T07:15:56.632Z,11.9
2017-10-04T07:16:58.258Z,13.6
2017-10-04T07:17:59.882Z,10.5
2017-10-04T07:19:01.511Z,9.7
2017-10-04T07:20:03.131Z,9.3
2017-10-04T07:21:04.761Z,10.2
2017-10-04T07:22:06.377Z,11.6
2017-10-04T07:23:08.001Z,16.6
2017-10-04T07:24:09.621Z,9.2
2017-10-04T07:25:11.248Z,13.5
2017-10-04T07:26:12.871Z,19.1
2017-10-04T07:27:14.496Z,11.6
2017-10-04T07:28:16.120Z,14.6
2017-10-04T07:29:17.744Z,13.5
2017-10-04T07:30:19.369Z,13.4
2017-10-04T07:31:21.007Z,13.5
2017-10-04T07:32:22.616Z,10.1
2017-10-04T07:33:24.240Z,9.3
2017-10-04T07:34:25.864Z,18.4
2017-10-04T07:35:27.490Z,11.4
2017-10-04T07:36:29.113Z,16.0
2017-10-04T07:37:30.736Z,9.4
2017-10-04T07:38:32.359Z,11.1
2017-10-04T07:39:33.982Z,17.9
2017-10-04T07:40:35.610Z,12.0
2017-10-04T07:41:37.235Z,9.7
2017-10-04T07:42:38.861Z,10.6
2017-10-04T07:43:40.484Z,12.0
2017-10-04T07:44:42.107Z,14.1
2017-10-04T07:45:43.733Z,10.3
2017-10-04T07:46:45.358Z,12.5
2017-10-04T07:47:46.985Z,13.6
2017-10-04T07:48:48.610Z,9.0
2017-10-04T07:49:50.236Z,7.9
2017-10-04T07:50:51.861Z,10.0
2017-10-04T07:51:53.483Z,12.5
2017-10-04T07:52:55.111Z,17.4
2017-10-04T07:53:56.735Z,12.8
2017-10-04T07:54:58.363Z,10.1
2017-10-04T07:56:00.005Z,10.2
2017-10-04T07:57:01.614Z,10.7
2017-10-04T07:58:03.238Z,10.9
2017-10-04T07:59:04.865Z,11.6
2017-10-04T08:00:06.488Z,12.3
2017-10-04T08:01:08.114Z,10.4
2017-10-04T08:02:09.745Z,12.8
2017-10-04T08:03:11.366Z,11.0
2017-10-04T08:04:12.990Z,13.3
2017-10-04T08:05:14.615Z,8.7
2017-10-04T08:06:16.239Z,8.6
2017-10-04T08:07:17.863Z,7.9
2017-10-04T08:08:19.489Z,12.7
2017-10-04T08:09:21.113Z,10.9
2017-10-04T08:10:22.741Z,9.0
2017-10-04T08:11:24.366Z,8.1
2017-10-04T08:12:25.991Z,10.1
2017-10-04T08:13:27.619Z,13.6
2017-10-04T08:14:29.243Z,7.6
2017-10-04T08:15:30.868Z,12.3
2017-10-04T08:16:32.495Z,12.5
2017-10-04T08:17:34.122Z,8.9
2017-10-04T08:18:35.747Z,10.6
2017-10-04T08:19:37.373Z,8.5
2017-10-04T08:20:38.996Z,6.9
2017-10-04T08:21:40.623Z,9.9
2017-10-04T08:22:42.248Z,10.6
2017-10-04T08:23:43.874Z,9.8
2017-10-04T08:24:45.500Z,10.4
2017-10-04T08:25:47.126Z,6.9
2017-10-04T08:26:48.752Z,10.5
2017-10-04T08:27:50.380Z,10.6
2017-10-04T08:28:52.005Z,6.7
2017-10-04T08:29:53.635Z,9.0
2017-10-04T08:30:55.263Z,10.3
2017-10-04T08:31:56.888Z,8.8
2017-10-04T08:32:58.516Z,10.4
2017-10-04T08:34:00.143Z,12.1
2017-10-04T08:35:01.767Z,10.7
2017-10-04T08:36:03.392Z,11.7
2017-10-04T08:37:05.015Z,8.1
2017-10-04T08:38:06.642Z,11.5
2017-10-04T08:39:08.270Z,11.5
2017-10-04T08:40:09.897Z,10.3
2017-10-04T08:41:11.522Z,8.5
2017-10-04T08:42:13.147Z,10.9
2017-10-04T08:43:14.771Z,9.1
2017-10-04T08:44:16.396Z,10.9
2017-10-04T08:45:18.023Z,10.8
2017-10-04T08:46:19.647Z,8.0
2017-10-04T08:47:21.276Z,12.5
2017-10-04T08:48:22.902Z,9.5
2017-10-04T08:49:24.525Z,6.2
2017-10-04T08:50:26.149Z,7.8
2017-10-04T08:51:27.775Z,9.4
2017-10-04T08:52:29.401Z,10.8
2017-10-04T08:53:31.033Z,9.5
2017-10-04T08:54:32.656Z,13.0
2017-10-04T08:55:34.284Z,11.3
2017-10-04T08:56:35.906Z,9.3
2017-10-04T08:57:37.532Z,9.4
2017-10-04T08:58:39.159Z,13.0
2017-10-04T08:59:40.784Z,7.3
2017-10-04T09:00:42.410Z,9.4
2017-10-04T09:01:44.040Z,12.1
2017-10-04T09:02:45.662Z,7.7
2017-10-04T09:03:47.289Z,9.4
2017-10-04T09:04:48.917Z,7.2
2017-10-04T09:05:50.546Z,8.0
2017-10-04T09:06:52.292Z,9.0
2017-10-04T09:07:53.891Z,9.3
2017-10-04T09:08:55.541Z,11.1
2017-10-04T09:09:57.142Z,8.3
2017-10-04T09:10:58.765Z,7.7
2017-10-04T09:12:00.389Z,9.9
2017-10-04T09:13:02.015Z,9.4
2017-10-04T09:14:03.642Z,5.9
2017-10-04T09:15:05.269Z,10.1
2017-10-04T09:16:06.898Z,8.0
2017-10-04T09:17:08.521Z,11.4
2017-10-04T09:18:10.144Z,8.9
2017-10-04T09:19:11.770Z,10.9
2017-10-04T09:20:13.398Z,11.6
2017-10-04T09:21:15.024Z,8.0
2017-10-04T09:22:16.656Z,9.5
2017-10-04T09:23:18.277Z,10.0
2017-10-04T09:24:19.901Z,9.8
2017-10-04T09:25:21.528Z,7.7
2017-10-04T09:26:23.153Z,10.6
2017-10-04T09:27:24.782Z,10.2
2017-10-04T09:28:26.408Z,11.0
2017-10-04T09:29:28.035Z,7.5
2017-10-04T09:30:29.662Z,10.6
2017-10-04T09:31:31.287Z,8.2
2017-10-04T09:32:32.915Z,7.8
2017-10-04T09:33:34.541Z,11.3
2017-10-04T09:34:36.168Z,9.7
2017-10-04T09:35:37.794Z,9.6
2017-10-04T09:36:39.422Z,6.4
2017-10-04T09:37:41.048Z,9.0
2017-10-04T09:38:42.674Z,7.4
2017-10-04T09:39:44.298Z,8.0
2017-10-04T09:40:45.925Z,11.2
2017-10-04T09:41:47.550Z,8.4
2017-10-04T09:42:49.175Z,8.3
2017-10-04T09:43:50.802Z,7.1
2017-10-04T09:44:52.431Z,10.6
2017-10-04T09:45:54.057Z,7.1
2017-10-04T09:46:55.684Z,8.2
2017-10-04T09:47:57.310Z,8.8
2017-10-04T09:48:58.938Z,11.0
2017-10-04T09:50:00.673Z,10.2
2017-10-04T09:51:02.280Z,10.6
2017-10-04T09:52:03.913Z,11.4
2017-10-04T09:53:05.534Z,8.7
2017-10-04T09:54:07.162Z,10.3
2017-10-04T09:55:08.788Z,8.9
2017-10-04T09:56:10.414Z,9.9
2017-10-04T09:57:12.042Z,7.3
2017-10-04T09:58:13.668Z,8.0
2017-10-04T09:59:15.294Z,7.9
2017-10-04T10:00:16.918Z,10.8
2017-10-04T10:01:18.546Z,9.9
2017-10-04T10:02:20.171Z,8.3
2017-10-04T10:03:21.813Z,9.1
2017-10-04T10:04:23.438Z,7.8
2017-10-04T10:05:25.066Z,8.1
2017-10-04T10:06:26.705Z,8.2
2017-10-04T10:07:28.320Z,7.2
2017-10-04T10:08:29.940Z,8.9
2017-10-04T10:09:31.564Z,9.0
2017-10-04T10:10:33.195Z,11.0
2017-10-04T10:11:34.817Z,6.9
2017-10-04T10:12:36.442Z,8.5
2017-10-04T10:13:38.068Z,6.1
2017-10-04T10:14:39.693Z,7.7
2017-10-04T10:15:41.320Z,11.0
2017-10-04T10:16:42.946Z,11.2
2017-10-04T10:17:44.570Z,9.0
2017-10-04T10:18:46.215Z,9.3
2017-10-04T10:19:47.846Z,8.9
2017-10-04T10:20:49.472Z,7.8
2017-10-04T10:21:51.096Z,6.3
2017-10-04T10:22:52.722Z,11.9
2017-10-04T10:23:54.345Z,5.8
2017-10-04T10:24:55.973Z,9.2
2017-10-04T10:25:57.596Z,9.0
2017-10-04T10:26:59.223Z,10.2
2017-10-04T10:28:00.874Z,7.5
2017-10-04T10:29:02.475Z,12.1
2017-10-04T10:30:04.100Z,6.9
2017-10-04T10:31:05.724Z,8.7
2017-10-04T10:32:07.350Z,5.2
2017-10-04T10:33:08.978Z,7.2
2017-10-04T10:34:10.602Z,8.4
2017-10-04T10:35:12.231Z,7.5
2017-10-04T10:36:13.855Z,11.1
2017-10-04T10:37:15.481Z,10.2
2017-10-04T10:38:17.110Z,8.7
2017-10-04T10:39:18.730Z,9.4
2017-10-04T10:40:20.363Z,8.5
2017-10-04T10:41:21.987Z,10.1
2017-10-04T10:42:23.615Z,8.1
2017-10-04T10:43:25.241Z,7.7
2017-10-04T10:44:26.864Z,7.7
2017-10-04T10:45:28.490Z,10.6
2017-10-04T10:46:30.116Z,10.9
2017-10-04T10:47:31.746Z,9.4
2017-10-04T10:48:33.368Z,10.1
2017-10-04T10:49:34.996Z,10.1
2017-10-04T10:50:36.619Z,13.7
2017-10-04T10:51:38.246Z,7.2
2017-10-04T10:52:39.873Z,10.7
2017-10-04T10:53:41.500Z,9.6
2017-10-04T10:54:43.129Z,7.5
2017-10-04T10:55:44.757Z,8.1
2017-10-04T10:56:46.387Z,10.5
2017-10-04T10:57:48.012Z,8.7
2017-10-04T10:58:49.638Z,9.1
2017-10-04T10:59:51.269Z,10.2
2017-10-04T11:00:52.893Z,6.7
2017-10-04T11:01:54.521Z,7.9
2017-10-04T11:02:56.147Z,10.2
2017-10-04T11:03:57.777Z,8.2
2017-10-04T11:04:59.401Z,9.1
2017-10-04T11:06:01.023Z,7.7
2017-10-04T11:07:02.651Z,7.8
2017-10-04T11:08:04.275Z,6.8
2017-10-04T11:09:05.900Z,10.5
2017-10-04T11:10:07.528Z,9.3
2017-10-04T11:11:09.156Z,7.5
2017-10-04T11:12:10.782Z,6.1
2017-10-04T11:13:12.407Z,6.3
2017-10-04T11:14:14.035Z,8.2
2017-10-04T11:15:15.661Z,9.2
2017-10-04T11:16:17.291Z,8.0
2017-10-04T11:17:18.917Z,10.1
2017-10-04T11:18:20.546Z,6.5
2017-10-04T11:19:22.173Z,8.1
2017-10-04T11:20:23.800Z,10.4
2017-10-04T11:21:25.433Z,6.5
2017-10-04T11:22:27.057Z,5.4
2017-10-04T11:23:28.682Z,7.9
2017-10-04T11:24:30.310Z,8.8
2017-10-04T11:25:31.937Z,7.9
2017-10-04T11:26:33.564Z,7.1
2017-10-04T11:27:35.193Z,8.2
2017-10-04T11:28:36.822Z,10.8
2017-10-04T11:29:38.448Z,8.8
2017-10-04T11:30:40.076Z,8.0
2017-10-04T11:31:41.709Z,11.2
2017-10-04T11:32:43.335Z,6.3
2017-10-04T11:33:44.963Z,7.0
2017-10-04T11:34:46.592Z,7.0
2017-10-04T11:35:48.223Z,9.3
2017-10-04T11:36:49.849Z,9.3
2017-10-04T11:37:51.479Z,7.8
2017-10-04T11:38:53.109Z,6.5
2017-10-04T11:39:54.741Z,7.9
2017-10-04T11:40:56.368Z,7.1
2017-10-04T11:41:57.996Z,10.4
2017-10-04T11:42:59.625Z,8.1
2017-10-04T11:44:01.251Z,8.0
2017-10-04T11:45:02.884Z,7.2
2017-10-04T11:46:04.512Z,6.0
2017-10-04T11:47:06.146Z,9.2
2017-10-04T11:48:07.773Z,11.3
2017-10-04T11:49:09.402Z,7.9
2017-10-04T11:50:11.031Z,7.0
2017-10-04T11:51:12.660Z,10.5
2017-10-04T11:52:14.293Z,7.8
2017-10-04T11:53:15.915Z,10.1
2017-10-04T11:54:17.547Z,11.2
2017-10-04T11:55:19.176Z,7.8
2017-10-04T11:56:20.802Z,8.1
2017-10-04T11:57:22.428Z,9.8
2017-10-04T11:58:24.054Z,6.7
2017-10-04T11:59:25.684Z,7.0
2017-10-04T12:00:27.312Z,8.0
2017-10-04T12:01:28.942Z,6.8
2017-10-04T12:02:30.567Z,8.8
2017-10-04T12:03:32.194Z,9.4
2017-10-04T12:04:33.821Z,6.7
2017-10-04T12:05:35.448Z,8.4
2017-10-04T12:06:37.077Z,10.0
2017-10-04T12:07:38.703Z,9.8
2017-10-04T12:08:40.332Z,6.8
2017-10-04T12:09:41.961Z,6.2
2017-10-04T12:10:43.587Z,10.6
2017-10-04T12:11:45.215Z,8.1
2017-10-04T12:12:46.842Z,11.7
2017-10-04T12:13:48.472Z,8.5
2017-10-04T12:14:50.099Z,7.0
2017-10-04T12:15:51.729Z,5.3
2017-10-04T12:16:53.356Z,4.9
2017-10-04T12:17:54.981Z,6.9
2017-10-04T12:18:56.614Z,6.1
2017-10-04T12:19:58.240Z,10.4
2017-10-04T12:20:59.869Z,7.1
2017-10-04T12:22:01.499Z,9.7
2017-10-04T12:23:03.134Z,9.3
2017-10-04T12:24:04.760Z,8.0
2017-10-04T12:25:06.480Z,7.8
2017-10-04T12:26:08.107Z,6.0
2017-10-04T12:27:09.736Z,7.4
2017-10-04T12:28:11.365Z,5.4
2017-10-04T12:29:12.994Z,5.9
2017-10-04T12:30:14.626Z,4.6
2017-10-04T12:31:16.251Z,5.8
2017-10-04T12:32:17.877Z,8.6
2017-10-04T12:33:19.507Z,8.2
2017-10-04T12:34:21.135Z,9.3
2017-10-04T12:35:22.763Z,5.6
2017-10-04T12:36:24.414Z,8.3
2017-10-04T12:37:26.018Z,7.9
2017-10-04T12:38:27.647Z,10.0
2017-10-04T12:39:29.272Z,6.7
2017-10-04T12:40:30.898Z,6.5
2017-10-04T12:41:32.525Z,8.7
2017-10-04T12:42:34.151Z,7.4
2017-10-04T12:43:35.780Z,7.1
2017-10-04T12:44:37.407Z,7.4
2017-10-04T12:45:39.031Z,5.8
2017-10-04T12:46:40.659Z,6.1
2017-10-04T12:47:42.289Z,6.2
2017-10-04T12:48:43.912Z,8.1
2017-10-04T12:49:45.539Z,6.4
2017-10-04T12:50:47.167Z,5.5
2017-10-04T12:51:48.794Z,8.6
2017-10-04T12:52:50.417Z,7.0
2017-10-04T12:53:52.043Z,7.1
2017-10-04T12:54:53.670Z,8.1
2017-10-04T12:55:55.295Z,7.2
2017-10-04T12:56:56.921Z,5.9
2017-10-04T12:57:58.548Z,6.2
2017-10-04T12:59:00.175Z,5.3
2017-10-04T13:00:01.800Z,8.4
2017-10-04T13:01:03.426Z,6.2
2017-10-04T13:02:05.057Z,5.8
2017-10-04T13:03:06.678Z,7.1
2017-10-04T13:04:08.305Z,10.4
2017-10-04T13:05:09.929Z,7.0
2017-10-04T13:06:11.559Z,5.6
2017-10-04T13:07:13.182Z,10.7
2017-10-04T13:08:14.806Z,7.3
2017-10-04T13:09:16.433Z,8.6
2017-10-04T13:10:18.056Z,7.6
2017-10-04T13:11:19.682Z,5.8
2017-10-04T13:12:21.308Z,5.6
2017-10-04T13:13:22.934Z,4.9
2017-10-04T13:14:24.559Z,6.4
2017-10-04T13:15:26.184Z,6.3
2017-10-04T13:16:27.809Z,8.7
2017-10-04T13:17:29.432Z,7.4
2017-10-04T13:18:31.060Z,11.5
2017-10-04T13:19:32.689Z,5.5
2017-10-04T13:20:34.314Z,8.3
2017-10-04T13:21:35.940Z,5.3
2017-10-04T13:22:37.564Z,9.9
2017-10-04T13:23:39.192Z,7.4
2017-10-04T13:24:40.818Z,6.5
2017-10-04T13:25:42.447Z,10.1
2017-10-04T13:26:44.072Z,5.3
2017-10-04T13:27:45.700Z,7.6
2017-10-04T13:28:47.366Z,5.9
2017-10-04T13:29:48.992Z,5.8
2017-10-04T13:30:50.617Z,4.6
2017-10-04T13:31:52.244Z,5.4
2017-10-04T13:32:53.869Z,6.2
2017-10-04T13:33:55.497Z,4.0
2017-10-04T13:34:57.123Z,4.4
2017-10-04T13:35:58.746Z,5.8
2017-10-04T13:37:00.374Z,8.3
2017-10-04T13:38:01.997Z,5.1
2017-10-04T13:39:03.623Z,3.6
2017-10-04T13:40:05.245Z,9.9
2017-10-04T13:41:06.872Z,5.9
2017-10-04T13:42:08.514Z,6.1
2017-10-04T13:43:10.141Z,7.7
2017-10-04T13:44:11.765Z,3.6
2017-10-04T13:45:13.390Z,6.9
2017-10-04T13:46:15.014Z,5.8
2017-10-04T13:47:16.639Z,4.4
2017-10-04T13:48:18.264Z,4.8
2017-10-04T13:49:19.891Z,8.0
2017-10-04T13:50:21.515Z,4.5